TimeCDT,TemperatureF,Dew PointF,Humidity,Sea Level PressureIn,VisibilityMPH,Wind Direction,Wind SpeedMPH,Gust SpeedMPH,PrecipitationIn,Events,Conditions,WindDirDegrees,DateUTC
12:58 AM,84.9,66.4,54,29.92,10.0,SE,10.4,-,N/A,,Clear,140,2013-07-13 05:58:00
1:58 AM,83.1,66.7,58,29.92,10.0,SE,10.4,-,N/A,,Clear,130,2013-07-13 06:58:00
2:58 AM,82.0,66.9,60,29.92,10.0,SSE,10.4,-,N/A,,Clear,150,2013-07-13 07:58:00
3:58 AM,80.6,67.3,64,29.92,10.0,SSE,10.4,-,N/A,,Clear,150,2013-07-13 08:58:00
4:58 AM,79.5,67.6,67,29.93,10.0,SSE,8.1,-,N/A,,Clear,150,2013-07-13 09:58:00
5:58 AM,78.8,68.0,69,29.93,10.0,SSE,8.1,-,N/A,,Clear,150,2013-07-13 10:58:00
6:58 AM,77.7,68.4,73,29.96,10.0,SSE,8.1,-,N/A,,Clear,150,2013-07-13 11:58:00
7:58 AM,79.9,69.4,70,29.96,10.0,SSE,11.5,-,N/A,,Clear,150,2013-07-13 12:58:00
8:58 AM,83.5,70.2,64,29.96,10.0,SSE,16.1,-,N/A,,Clear,160,2013-07-13 13:58:00
9:58 AM,87.3,70.7,58,29.95,10.0,SSE,12.7,-,N/A,,Clear,160,2013-07-13 14:58:00
10:58 AM,91.0,69.8,50,29.94,10.0,SSE,8.1,-,N/A,,Clear,160,2013-07-13 15:58:00
11:58 AM,94.5,66.6,40,29.94,10.0,South,8.1,-,N/A,,Clear,180,2013-07-13 16:58:00
12:58 PM,96.8,64.8,35,29.92,10.0,Variable,4.6,-,N/A,,Clear,0,2013-07-13 17:58:00
1:58 PM,99.7,64.2,31,29.90,10.0,West,4.6,-,N/A,,Clear,280,2013-07-13 18:58:00
2:58 PM,100.6,63.3,29,29.88,10.0,Variable,3.5,-,N/A,,Clear,0,2013-07-13 19:58:00
3:58 PM,102.2,62.1,27,29.85,10.0,Variable,4.6,-,N/A,,Clear,0,2013-07-13 20:58:00
4:58 PM,102.2,61.5,26,29.83,10.0,Variable,1.2,-,N/A,,Mostly Cloudy,0,2013-07-13 21:58:00
5:58 PM,99.0,63.1,31,29.84,10.0,SE,11.5,-,N/A,,Mostly Cloudy,130,2013-07-13 22:58:00
6:58 PM,98.4,63.1,31,29.83,10.0,SE,11.5,-,N/A,,Partly Cloudy,130,2013-07-13 23:58:00
7:58 PM,95.0,64.8,37,29.83,10.0,ESE,12.7,-,N/A,,Clear,120,2013-07-14 00:58:00
10:59 PM,87.8,65.7,48,29.88,10.0,SE,12.7,19.6,N/A,,Mostly Cloudy,130,2013-07-14 03:59:00
11:58 PM,86.2,64.8,49,29.88,10.0,SE,12.7,-,N/A,,Mostly Cloudy,140,2013-07-14 04:58:00